sensor_id;sensor_type;location;lat;lon;timestamp;temperature;humidity
3860;DHT22;1945;52.036;8.614;2022-07-19T00:02:22;17.30;99.90
3860;DHT22;1945;52.036;8.614;2022-07-19T00:04:49;17.20;99.90
3860;DHT22;1945;52.036;8.614;2022-07-19T00:07:16;17.30;99.90
3860;DHT22;1945;52.036;8.614;2022-07-19T00:09:42;17.20;99.90
3860;DHT22;1945;52.036;8.614;2022-07-19T00:12:09;17.20;99.90
3860;DHT22;1945;52.036;8.614;2022-07-19T00:14:39;17.20;99.90
3860;DHT22;1945;52.036;8.614;2022-07-19T00:17:06;17.20;99.90
3860;DHT22;1945;52.036;8.614;2022-07-19T00:19:33;17.10;99.90
3860;DHT22;1945;52.036;8.614;2022-07-19T00:21:59;17.00;99.90
3860;DHT22;1945;52.036;8.614;2022-07-19T00:24:26;17.00;99.90
3860;DHT22;1945;52.036;8.614;2022-07-19T00:26:52;16.80;99.90
3860;DHT22;1945;52.036;8.614;2022-07-19T00:29:19;16.80;99.90
3860;DHT22;1945;52.036;8.614;2022-07-19T00:31:47;16.90;99.90
3860;DHT22;1945;52.036;8.614;2022-07-19T00:34:14;16.90;99.90
3860;DHT22;1945;52.036;8.614;2022-07-19T00:36:41;16.90;99.90
3860;DHT22;1945;52.036;8.614;2022-07-19T00:39:07;16.80;99.90
3860;DHT22;1945;52.036;8.614;2022-07-19T00:41:39;16.60;99.90
3860;DHT22;1945;52.036;8.614;2022-07-19T00:44:06;16.60;99.90
3860;DHT22;1945;52.036;8.614;2022-07-19T00:46:33;16.60;99.90
3860;DHT22;1945;52.036;8.614;2022-07-19T00:49:03;16.50;99.90
3860;DHT22;1945;52.036;8.614;2022-07-19T00:51:33;16.70;99.90
3860;DHT22;1945;52.036;8.614;2022-07-19T00:54:01;16.60;99.90
3860;DHT22;1945;52.036;8.614;2022-07-19T00:56:31;16.60;99.90
3860;DHT22;1945;52.036;8.614;2022-07-19T00:58:59;16.50;99.90
3860;DHT22;1945;52.036;8.614;2022-07-19T01:01:27;16.50;99.90
3860;DHT22;1945;52.036;8.614;2022-07-19T01:03:54;16.30;99.90
3860;DHT22;1945;52.036;8.614;2022-07-19T01:06:23;16.30;99.90
3860;DHT22;1945;52.036;8.614;2022-07-19T01:08:50;16.20;99.90
3860;DHT22;1945;52.036;8.614;2022-07-19T01:11:17;16.20;99.90
3860;DHT22;1945;52.036;8.614;2022-07-19T01:13:44;16.20;99.90
3860;DHT22;1945;52.036;8.614;2022-07-19T01:16:11;16.20;99.90
3860;DHT22;1945;52.036;8.614;2022-07-19T01:18:37;16.10;99.90
3860;DHT22;1945;52.036;8.614;2022-07-19T01:21:04;16.10;99.90
3860;DHT22;1945;52.036;8.614;2022-07-19T01:23:33;16.10;99.90
3860;DHT22;1945;52.036;8.614;2022-07-19T01:25:59;16.20;99.90
3860;DHT22;1945;52.036;8.614;2022-07-19T01:28:26;16.20;99.90
3860;DHT22;1945;52.036;8.614;2022-07-19T01:30:53;16.30;99.90
3860;DHT22;1945;52.036;8.614;2022-07-19T01:33:20;16.00;99.90
3860;DHT22;1945;52.036;8.614;2022-07-19T01:35:47;15.90;99.90
3860;DHT22;1945;52.036;8.614;2022-07-19T01:38:14;15.80;99.90
3860;DHT22;1945;52.036;8.614;2022-07-19T01:40:42;15.70;99.90
3860;DHT22;1945;52.036;8.614;2022-07-19T01:43:08;15.70;99.90
3860;DHT22;1945;52.036;8.614;2022-07-19T01:45:35;15.70;99.90
3860;DHT22;1945;52.036;8.614;2022-07-19T01:48:02;15.80;99.90
3860;DHT22;1945;52.036;8.614;2022-07-19T01:50:29;15.70;99.90
3860;DHT22;1945;52.036;8.614;2022-07-19T01:52:56;15.70;99.90
3860;DHT22;1945;52.036;8.614;2022-07-19T01:55:22;15.50;99.90
3860;DHT22;1945;52.036;8.614;2022-07-19T01:57:50;15.50;99.90
3860;DHT22;1945;52.036;8.614;2022-07-19T02:00:17;15.50;99.90
3860;DHT22;1945;52.036;8.614;2022-07-19T02:02:44;15.40;99.90
3860;DHT22;1945;52.036;8.614;2022-07-19T02:05:11;15.50;99.90
3860;DHT22;1945;52.036;8.614;2022-07-19T02:07:38;15.50;99.90
3860;DHT22;1945;52.036;8.614;2022-07-19T02:10:06;15.50;99.90
3860;DHT22;1945;52.036;8.614;2022-07-19T02:12:33;15.40;99.90
3860;DHT22;1945;52.036;8.614;2022-07-19T02:15:01;15.40;99.90
3860;DHT22;1945;52.036;8.614;2022-07-19T02:17:28;15.40;99.90
3860;DHT22;1945;52.036;8.614;2022-07-19T02:19:54;15.40;99.90
3860;DHT22;1945;52.036;8.614;2022-07-19T02:22:21;15.30;99.90
3860;DHT22;1945;52.036;8.614;2022-07-19T02:24:48;15.40;99.90
3860;DHT22;1945;52.036;8.614;2022-07-19T02:27:14;15.30;99.90
3860;DHT22;1945;52.036;8.614;2022-07-19T02:29:41;15.30;99.90
3860;DHT22;1945;52.036;8.614;2022-07-19T02:32:09;15.30;99.90
3860;DHT22;1945;52.036;8.614;2022-07-19T02:34:35;15.30;99.90
3860;DHT22;1945;52.036;8.614;2022-07-19T02:37:03;15.20;99.90
3860;DHT22;1945;52.036;8.614;2022-07-19T02:39:30;15.10;99.90
3860;DHT22;1945;52.036;8.614;2022-07-19T02:41:56;15.10;99.90
3860;DHT22;1945;52.036;8.614;2022-07-19T02:44:23;15.10;99.90
3860;DHT22;1945;52.036;8.614;2022-07-19T02:46:50;15.00;99.90
3860;DHT22;1945;52.036;8.614;2022-07-19T02:49:18;14.90;99.90
3860;DHT22;1945;52.036;8.614;2022-07-19T02:51:46;14.90;99.90
3860;DHT22;1945;52.036;8.614;2022-07-19T02:54:12;14.90;99.90
3860;DHT22;1945;52.036;8.614;2022-07-19T02:56:39;14.80;99.90
3860;DHT22;1945;52.036;8.614;2022-07-19T02:59:06;14.80;99.90
3860;DHT22;1945;52.036;8.614;2022-07-19T03:01:33;14.80;99.90
3860;DHT22;1945;52.036;8.614;2022-07-19T03:03:59;14.80;99.90
3860;DHT22;1945;52.036;8.614;2022-07-19T03:06:27;14.80;99.90
3860;DHT22;1945;52.036;8.614;2022-07-19T03:08:54;14.80;99.90
3860;DHT22;1945;52.036;8.614;2022-07-19T03:11:21;14.70;99.90
3860;DHT22;1945;52.036;8.614;2022-07-19T03:13:47;14.80;99.90
3860;DHT22;1945;52.036;8.614;2022-07-19T03:16:14;14.70;99.90
3860;DHT22;1945;52.036;8.614;2022-07-19T03:18:41;14.70;99.90
3860;DHT22;1945;52.036;8.614;2022-07-19T03:21:08;14.60;99.90
3860;DHT22;1945;52.036;8.614;2022-07-19T03:23:36;14.60;99.90
3860;DHT22;1945;52.036;8.614;2022-07-19T03:26:04;14.60;1.00
3860;DHT22;1945;52.036;8.614;2022-07-19T03:28:31;14.60;1.00
3860;DHT22;1945;52.036;8.614;2022-07-19T03:30:58;14.60;1.00
3860;DHT22;1945;52.036;8.614;2022-07-19T03:33:24;14.60;1.00
3860;DHT22;1945;52.036;8.614;2022-07-19T03:35:51;14.50;99.90
3860;DHT22;1945;52.036;8.614;2022-07-19T03:38:18;14.60;1.00
3860;DHT22;1945;52.036;8.614;2022-07-19T03:40:47;14.70;1.00
3860;DHT22;1945;52.036;8.614;2022-07-19T03:43:14;14.70;99.90
3860;DHT22;1945;52.036;8.614;2022-07-19T03:45:41;14.70;99.90
3860;DHT22;1945;52.036;8.614;2022-07-19T03:48:08;14.80;1.00
3860;DHT22;1945;52.036;8.614;2022-07-19T03:50:35;14.90;99.90
3860;DHT22;1945;52.036;8.614;2022-07-19T03:53:02;15.00;99.90
3860;DHT22;1945;52.036;8.614;2022-07-19T03:55:28;15.20;99.90
3860;DHT22;1945;52.036;8.614;2022-07-19T03:57:56;15.40;99.90
3860;DHT22;1945;52.036;8.614;2022-07-19T04:00:23;15.50;99.90
3860;DHT22;1945;52.036;8.614;2022-07-19T04:02:50;15.70;99.90
3860;DHT22;1945;52.036;8.614;2022-07-19T04:05:16;15.90;99.90
3860;DHT22;1945;52.036;8.614;2022-07-19T04:07:43;16.00;99.90
3860;DHT22;1945;52.036;8.614;2022-07-19T04:10:10;16.20;99.90
3860;DHT22;1945;52.036;8.614;2022-07-19T04:12:37;16.40;99.90
3860;DHT22;1945;52.036;8.614;2022-07-19T04:15:06;16.60;99.90
3860;DHT22;1945;52.036;8.614;2022-07-19T04:17:33;16.80;99.90
3860;DHT22;1945;52.036;8.614;2022-07-19T04:20:00;17.00;99.90
3860;DHT22;1945;52.036;8.614;2022-07-19T04:22:27;17.20;99.90
3860;DHT22;1945;52.036;8.614;2022-07-19T04:24:54;17.40;74.60
3860;DHT22;1945;52.036;8.614;2022-07-19T04:27:20;17.50;52.90
3860;DHT22;1945;52.036;8.614;2022-07-19T04:29:47;17.70;35.40
3860;DHT22;1945;52.036;8.614;2022-07-19T04:32:15;18.00;1.00
3860;DHT22;1945;52.036;8.614;2022-07-19T04:34:42;18.20;1.00
3860;DHT22;1945;52.036;8.614;2022-07-19T04:37:08;18.40;1.00
3860;DHT22;1945;52.036;8.614;2022-07-19T04:39:35;18.60;1.00
3860;DHT22;1945;52.036;8.614;2022-07-19T04:42:02;18.70;1.00
3860;DHT22;1945;52.036;8.614;2022-07-19T04:44:30;19.10;1.00
3860;DHT22;1945;52.036;8.614;2022-07-19T04:46:56;19.30;1.00
3860;DHT22;1945;52.036;8.614;2022-07-19T04:49:24;19.60;1.00
3860;DHT22;1945;52.036;8.614;2022-07-19T04:51:51;19.90;1.00
3860;DHT22;1945;52.036;8.614;2022-07-19T04:54:18;20.20;1.00
3860;DHT22;1945;52.036;8.614;2022-07-19T04:56:44;20.50;1.00
3860;DHT22;1945;52.036;8.614;2022-07-19T04:59:11;20.70;1.00
3860;DHT22;1945;52.036;8.614;2022-07-19T05:01:38;20.90;1.00
3860;DHT22;1945;52.036;8.614;2022-07-19T05:04:05;21.20;1.00
3860;DHT22;1945;52.036;8.614;2022-07-19T05:06:33;21.40;1.00
3860;DHT22;1945;52.036;8.614;2022-07-19T05:08:59;21.70;1.00
3860;DHT22;1945;52.036;8.614;2022-07-19T05:11:26;22.00;1.00
3860;DHT22;1945;52.036;8.614;2022-07-19T05:13:53;22.20;1.00
3860;DHT22;1945;52.036;8.614;2022-07-19T05:16:20;22.40;1.00
3860;DHT22;1945;52.036;8.614;2022-07-19T05:18:47;22.70;1.00
3860;DHT22;1945;52.036;8.614;2022-07-19T05:21:13;23.00;1.00
3860;DHT22;1945;52.036;8.614;2022-07-19T05:23:41;23.30;1.00
3860;DHT22;1945;52.036;8.614;2022-07-19T05:26:08;23.50;1.00
3860;DHT22;1945;52.036;8.614;2022-07-19T05:28:35;23.60;1.00
3860;DHT22;1945;52.036;8.614;2022-07-19T05:31:03;23.60;1.00
3860;DHT22;1945;52.036;8.614;2022-07-19T05:33:30;23.90;1.00
3860;DHT22;1945;52.036;8.614;2022-07-19T05:35:57;24.10;1.00
3860;DHT22;1945;52.036;8.614;2022-07-19T05:38:23;24.40;1.00
3860;DHT22;1945;52.036;8.614;2022-07-19T05:40:51;24.70;1.00
3860;DHT22;1945;52.036;8.614;2022-07-19T05:43:18;25.00;1.00
3860;DHT22;1945;52.036;8.614;2022-07-19T05:45:45;25.00;1.00
3860;DHT22;1945;52.036;8.614;2022-07-19T05:48:11;25.40;1.00
3860;DHT22;1945;52.036;8.614;2022-07-19T05:50:38;25.40;1.00
3860;DHT22;1945;52.036;8.614;2022-07-19T05:53:05;25.40;1.00
3860;DHT22;1945;52.036;8.614;2022-07-19T05:55:32;25.90;1.00
3860;DHT22;1945;52.036;8.614;2022-07-19T05:58:00;26.30;1.00
3860;DHT22;1945;52.036;8.614;2022-07-19T06:00:27;26.10;1.00
3860;DHT22;1945;52.036;8.614;2022-07-19T06:02:53;26.20;1.00
3860;DHT22;1945;52.036;8.614;2022-07-19T06:05:20;26.40;1.00
3860;DHT22;1945;52.036;8.614;2022-07-19T06:07:47;26.90;1.00
3860;DHT22;1945;52.036;8.614;2022-07-19T06:10:13;27.20;1.00
3860;DHT22;1945;52.036;8.614;2022-07-19T06:12:40;27.50;99.90
3860;DHT22;1945;52.036;8.614;2022-07-19T06:15:09;27.50;99.90
3860;DHT22;1945;52.036;8.614;2022-07-19T06:17:36;27.90;99.90
3860;DHT22;1945;52.036;8.614;2022-07-19T06:20:04;27.90;99.90
3860;DHT22;1945;52.036;8.614;2022-07-19T06:22:31;27.80;99.90
3860;DHT22;1945;52.036;8.614;2022-07-19T06:24:58;27.90;99.90
3860;DHT22;1945;52.036;8.614;2022-07-19T06:27:25;28.10;99.90
3860;DHT22;1945;52.036;8.614;2022-07-19T06:29:52;28.20;99.90
3860;DHT22;1945;52.036;8.614;2022-07-19T06:32:20;28.30;99.90
3860;DHT22;1945;52.036;8.614;2022-07-19T06:34:47;28.60;99.90
3860;DHT22;1945;52.036;8.614;2022-07-19T06:37:13;28.70;99.90
3860;DHT22;1945;52.036;8.614;2022-07-19T06:39:40;29.20;99.90
3860;DHT22;1945;52.036;8.614;2022-07-19T06:42:07;29.20;99.90
3860;DHT22;1945;52.036;8.614;2022-07-19T06:44:34;29.60;99.90
3860;DHT22;1945;52.036;8.614;2022-07-19T06:47:00;29.50;99.90
3860;DHT22;1945;52.036;8.614;2022-07-19T06:49:28;29.80;99.90
3860;DHT22;1945;52.036;8.614;2022-07-19T06:51:55;29.90;99.90
3860;DHT22;1945;52.036;8.614;2022-07-19T06:54:21;30.00;99.90
3860;DHT22;1945;52.036;8.614;2022-07-19T06:56:48;30.40;99.90
3860;DHT22;1945;52.036;8.614;2022-07-19T06:59:15;30.30;99.90
3860;DHT22;1945;52.036;8.614;2022-07-19T07:01:42;29.90;99.90
3860;DHT22;1945;52.036;8.614;2022-07-19T07:04:08;30.40;99.90
3860;DHT22;1945;52.036;8.614;2022-07-19T07:06:36;30.50;99.90
3860;DHT22;1945;52.036;8.614;2022-07-19T07:09:03;30.60;99.90
3860;DHT22;1945;52.036;8.614;2022-07-19T07:11:30;30.60;99.90
3860;DHT22;1945;52.036;8.614;2022-07-19T07:13:57;31.10;99.90
3860;DHT22;1945;52.036;8.614;2022-07-19T07:16:24;31.30;99.90
3860;DHT22;1945;52.036;8.614;2022-07-19T07:18:51;31.70;99.90
3860;DHT22;1945;52.036;8.614;2022-07-19T07:21:17;31.70;99.90
3860;DHT22;1945;52.036;8.614;2022-07-19T07:23:45;31.80;99.90
3860;DHT22;1945;52.036;8.614;2022-07-19T07:26:12;32.10;99.90
3860;DHT22;1945;52.036;8.614;2022-07-19T07:28:38;32.30;99.90
3860;DHT22;1945;52.036;8.614;2022-07-19T07:31:05;32.50;99.90
3860;DHT22;1945;52.036;8.614;2022-07-19T07:33:32;32.60;99.90
3860;DHT22;1945;52.036;8.614;2022-07-19T07:35:59;32.30;99.90
3860;DHT22;1945;52.036;8.614;2022-07-19T07:38:25;32.50;99.90
3860;DHT22;1945;52.036;8.614;2022-07-19T07:40:53;32.80;99.90
3860;DHT22;1945;52.036;8.614;2022-07-19T07:43:21;33.10;99.90
3860;DHT22;1945;52.036;8.614;2022-07-19T07:45:48;32.60;99.90
3860;DHT22;1945;52.036;8.614;2022-07-19T07:48:15;32.80;99.90
3860;DHT22;1945;52.036;8.614;2022-07-19T07:50:41;33.30;99.90
3860;DHT22;1945;52.036;8.614;2022-07-19T07:53:08;33.00;99.90
3860;DHT22;1945;52.036;8.614;2022-07-19T07:55:35;33.30;99.90
3860;DHT22;1945;52.036;8.614;2022-07-19T07:58:06;33.60;99.90
3860;DHT22;1945;52.036;8.614;2022-07-19T08:00:33;33.80;99.90
3860;DHT22;1945;52.036;8.614;2022-07-19T08:03:00;33.80;99.90
3860;DHT22;1945;52.036;8.614;2022-07-19T08:05:26;34.10;99.90
3860;DHT22;1945;52.036;8.614;2022-07-19T08:07:53;34.10;99.90
3860;DHT22;1945;52.036;8.614;2022-07-19T08:10:21;33.80;99.90
3860;DHT22;1945;52.036;8.614;2022-07-19T08:12:48;34.10;99.90
3860;DHT22;1945;52.036;8.614;2022-07-19T08:15:16;34.30;99.90
3860;DHT22;1945;52.036;8.614;2022-07-19T08:17:43;34.40;99.90
3860;DHT22;1945;52.036;8.614;2022-07-19T08:20:10;34.70;99.90
3860;DHT22;1945;52.036;8.614;2022-07-19T08:22:37;34.70;99.90
3860;DHT22;1945;52.036;8.614;2022-07-19T08:25:04;34.70;99.90
3860;DHT22;1945;52.036;8.614;2022-07-19T08:27:31;35.00;99.90
3860;DHT22;1945;52.036;8.614;2022-07-19T08:29:58;34.70;99.90
3860;DHT22;1945;52.036;8.614;2022-07-19T08:32:26;34.90;99.90
3860;DHT22;1945;52.036;8.614;2022-07-19T08:34:53;34.60;99.90
3860;DHT22;1945;52.036;8.614;2022-07-19T08:37:20;34.60;99.90
3860;DHT22;1945;52.036;8.614;2022-07-19T08:39:47;34.40;99.90
3860;DHT22;1945;52.036;8.614;2022-07-19T08:42:16;34.60;99.90
3860;DHT22;1945;52.036;8.614;2022-07-19T08:44:47;34.60;99.90
3860;DHT22;1945;52.036;8.614;2022-07-19T08:47:17;34.40;99.90
3860;DHT22;1945;52.036;8.614;2022-07-19T08:49:45;34.70;99.90
3860;DHT22;1945;52.036;8.614;2022-07-19T08:52:12;34.80;99.90
3860;DHT22;1945;52.036;8.614;2022-07-19T08:54:39;35.10;99.90
3860;DHT22;1945;52.036;8.614;2022-07-19T08:57:06;34.50;99.90
3860;DHT22;1945;52.036;8.614;2022-07-19T08:59:51;34.80;99.90
3860;DHT22;1945;52.036;8.614;2022-07-19T09:02:17;35.00;99.90
3860;DHT22;1945;52.036;8.614;2022-07-19T09:04:59;34.50;1.00
3860;DHT22;1945;52.036;8.614;2022-07-19T09:07:26;34.70;1.00
3860;DHT22;1945;52.036;8.614;2022-07-19T09:09:52;34.70;1.00
3860;DHT22;1945;52.036;8.614;2022-07-19T09:12:57;34.90;1.00
3860;DHT22;1945;52.036;8.614;2022-07-19T09:15:36;35.10;1.00
3860;DHT22;1945;52.036;8.614;2022-07-19T09:18:07;34.70;99.90
3860;DHT22;1945;52.036;8.614;2022-07-19T09:20:36;34.60;1.00
3860;DHT22;1945;52.036;8.614;2022-07-19T09:23:02;34.90;99.90
3860;DHT22;1945;52.036;8.614;2022-07-19T09:25:34;34.90;1.00
3860;DHT22;1945;52.036;8.614;2022-07-19T09:28:01;34.90;99.90
3860;DHT22;1945;52.036;8.614;2022-07-19T09:30:36;34.60;99.90
3860;DHT22;1945;52.036;8.614;2022-07-19T09:33:11;34.70;1.00
3860;DHT22;1945;52.036;8.614;2022-07-19T09:35:42;34.70;99.90
3860;DHT22;1945;52.036;8.614;2022-07-19T09:38:23;34.70;99.90
3860;DHT22;1945;52.036;8.614;2022-07-19T09:40:52;34.80;99.90
3860;DHT22;1945;52.036;8.614;2022-07-19T09:43:20;34.90;99.90
3860;DHT22;1945;52.036;8.614;2022-07-19T09:45:48;34.70;99.90
3860;DHT22;1945;52.036;8.614;2022-07-19T09:48:15;34.70;99.90
3860;DHT22;1945;52.036;8.614;2022-07-19T09:50:44;34.70;99.90
3860;DHT22;1945;52.036;8.614;2022-07-19T09:53:12;34.60;1.00
3860;DHT22;1945;52.036;8.614;2022-07-19T09:55:39;34.70;99.90
3860;DHT22;1945;52.036;8.614;2022-07-19T09:58:06;35.00;99.90
3860;DHT22;1945;52.036;8.614;2022-07-19T10:00:33;35.10;99.90
3860;DHT22;1945;52.036;8.614;2022-07-19T10:03:01;35.10;99.90
3860;DHT22;1945;52.036;8.614;2022-07-19T10:05:29;35.20;99.90
3860;DHT22;1945;52.036;8.614;2022-07-19T10:07:57;35.00;99.90
3860;DHT22;1945;52.036;8.614;2022-07-19T10:10:25;34.90;99.90
3860;DHT22;1945;52.036;8.614;2022-07-19T10:12:56;34.90;99.90
3860;DHT22;1945;52.036;8.614;2022-07-19T10:15:24;34.80;99.90
3860;DHT22;1945;52.036;8.614;2022-07-19T10:18:04;34.70;99.90
3860;DHT22;1945;52.036;8.614;2022-07-19T10:20:31;34.90;99.90
3860;DHT22;1945;52.036;8.614;2022-07-19T10:23:02;35.00;99.90
3860;DHT22;1945;52.036;8.614;2022-07-19T10:25:41;34.90;99.90
3860;DHT22;1945;52.036;8.614;2022-07-19T10:28:26;35.00;99.90
3860;DHT22;1945;52.036;8.614;2022-07-19T10:30:54;35.10;1.00
3860;DHT22;1945;52.036;8.614;2022-07-19T10:33:29;35.10;99.90
3860;DHT22;1945;52.036;8.614;2022-07-19T10:35:56;35.10;99.90
3860;DHT22;1945;52.036;8.614;2022-07-19T10:38:24;35.20;99.90
3860;DHT22;1945;52.036;8.614;2022-07-19T10:40:52;35.30;99.90
3860;DHT22;1945;52.036;8.614;2022-07-19T10:43:22;35.20;99.90
3860;DHT22;1945;52.036;8.614;2022-07-19T10:46:10;35.40;99.90
3860;DHT22;1945;52.036;8.614;2022-07-19T10:48:40;35.40;1.00
3860;DHT22;1945;52.036;8.614;2022-07-19T10:51:09;35.40;1.00
3860;DHT22;1945;52.036;8.614;2022-07-19T10:54:02;35.40;1.00
3860;DHT22;1945;52.036;8.614;2022-07-19T10:56:43;35.50;99.90
3860;DHT22;1945;52.036;8.614;2022-07-19T10:59:34;35.60;1.00
3860;DHT22;1945;52.036;8.614;2022-07-19T11:02:03;35.80;1.00
3860;DHT22;1945;52.036;8.614;2022-07-19T11:04:31;36.00;1.00
3860;DHT22;1945;52.036;8.614;2022-07-19T11:07:16;36.00;1.00
3860;DHT22;1945;52.036;8.614;2022-07-19T11:09:50;35.90;1.00
3860;DHT22;1945;52.036;8.614;2022-07-19T11:12:25;36.00;1.00
3860;DHT22;1945;52.036;8.614;2022-07-19T11:14:52;35.80;1.00
3860;DHT22;1945;52.036;8.614;2022-07-19T11:17:19;35.80;1.00
3860;DHT22;1945;52.036;8.614;2022-07-19T11:20:07;35.90;1.00
3860;DHT22;1945;52.036;8.614;2022-07-19T11:22:37;35.80;1.00
3860;DHT22;1945;52.036;8.614;2022-07-19T11:25:06;36.00;1.00
3860;DHT22;1945;52.036;8.614;2022-07-19T11:27:33;36.00;1.00
3860;DHT22;1945;52.036;8.614;2022-07-19T11:30:02;35.80;1.00
3860;DHT22;1945;52.036;8.614;2022-07-19T11:32:29;35.80;99.90
3860;DHT22;1945;52.036;8.614;2022-07-19T11:34:57;35.80;1.00
3860;DHT22;1945;52.036;8.614;2022-07-19T11:37:25;35.80;1.00
3860;DHT22;1945;52.036;8.614;2022-07-19T11:39:52;35.60;99.90
3860;DHT22;1945;52.036;8.614;2022-07-19T11:42:31;36.00;99.90
3860;DHT22;1945;52.036;8.614;2022-07-19T11:44:59;35.90;1.00
3860;DHT22;1945;52.036;8.614;2022-07-19T11:47:33;35.90;99.90
3860;DHT22;1945;52.036;8.614;2022-07-19T11:50:03;36.00;99.90
3860;DHT22;1945;52.036;8.614;2022-07-19T11:52:41;36.10;99.90
3860;DHT22;1945;52.036;8.614;2022-07-19T11:55:08;36.10;99.90
3860;DHT22;1945;52.036;8.614;2022-07-19T11:57:36;36.00;90.10
3860;DHT22;1945;52.036;8.614;2022-07-19T12:00:04;36.10;99.90
3860;DHT22;1945;52.036;8.614;2022-07-19T12:02:53;36.10;99.90
3860;DHT22;1945;52.036;8.614;2022-07-19T12:05:21;36.20;1.00
3860;DHT22;1945;52.036;8.614;2022-07-19T12:07:50;36.20;1.00
3860;DHT22;1945;52.036;8.614;2022-07-19T12:10:40;36.10;99.90
3860;DHT22;1945;52.036;8.614;2022-07-19T12:13:10;36.00;99.90
3860;DHT22;1945;52.036;8.614;2022-07-19T12:15:49;36.10;99.90
3860;DHT22;1945;52.036;8.614;2022-07-19T12:18:17;36.30;99.90
3860;DHT22;1945;52.036;8.614;2022-07-19T12:20:45;36.00;99.90
3860;DHT22;1945;52.036;8.614;2022-07-19T12:23:16;36.00;99.90
3860;DHT22;1945;52.036;8.614;2022-07-19T12:25:44;36.10;99.90
3860;DHT22;1945;52.036;8.614;2022-07-19T12:28:13;36.00;99.90
3860;DHT22;1945;52.036;8.614;2022-07-19T12:30:39;36.00;99.90
3860;DHT22;1945;52.036;8.614;2022-07-19T12:33:08;35.90;80.20
3860;DHT22;1945;52.036;8.614;2022-07-19T12:35:43;36.10;99.90
3860;DHT22;1945;52.036;8.614;2022-07-19T12:38:10;35.90;99.90
3860;DHT22;1945;52.036;8.614;2022-07-19T12:40:39;36.00;99.90
3860;DHT22;1945;52.036;8.614;2022-07-19T12:43:07;36.10;99.90
3860;DHT22;1945;52.036;8.614;2022-07-19T12:45:41;36.20;99.90
3860;DHT22;1945;52.036;8.614;2022-07-19T12:48:10;35.80;99.90
3860;DHT22;1945;52.036;8.614;2022-07-19T12:50:39;36.00;99.90
3860;DHT22;1945;52.036;8.614;2022-07-19T12:53:08;36.20;99.90
3860;DHT22;1945;52.036;8.614;2022-07-19T12:55:36;36.30;99.90
3860;DHT22;1945;52.036;8.614;2022-07-19T12:58:04;36.30;99.90
3860;DHT22;1945;52.036;8.614;2022-07-19T13:00:32;36.00;99.90
3860;DHT22;1945;52.036;8.614;2022-07-19T13:03:01;36.00;99.90
3860;DHT22;1945;52.036;8.614;2022-07-19T13:05:29;36.10;99.90
3860;DHT22;1945;52.036;8.614;2022-07-19T13:07:56;36.10;99.90
3860;DHT22;1945;52.036;8.614;2022-07-19T13:10:23;36.00;99.90
3860;DHT22;1945;52.036;8.614;2022-07-19T13:12:50;36.10;99.90
3860;DHT22;1945;52.036;8.614;2022-07-19T13:15:17;36.30;99.90
3860;DHT22;1945;52.036;8.614;2022-07-19T13:17:44;36.20;99.90
3860;DHT22;1945;52.036;8.614;2022-07-19T13:20:13;36.20;99.90
3860;DHT22;1945;52.036;8.614;2022-07-19T13:22:41;36.30;99.90
3860;DHT22;1945;52.036;8.614;2022-07-19T13:25:09;36.40;99.90
3860;DHT22;1945;52.036;8.614;2022-07-19T13:27:37;36.30;99.90
3860;DHT22;1945;52.036;8.614;2022-07-19T13:30:04;36.10;99.90
3860;DHT22;1945;52.036;8.614;2022-07-19T13:32:31;36.30;99.90
3860;DHT22;1945;52.036;8.614;2022-07-19T13:34:58;36.30;99.90
3860;DHT22;1945;52.036;8.614;2022-07-19T13:37:26;36.50;99.90
3860;DHT22;1945;52.036;8.614;2022-07-19T13:39:52;36.50;99.90
3860;DHT22;1945;52.036;8.614;2022-07-19T13:42:19;36.30;99.90
3860;DHT22;1945;52.036;8.614;2022-07-19T13:44:46;36.40;99.90
3860;DHT22;1945;52.036;8.614;2022-07-19T13:47:13;36.40;99.90
3860;DHT22;1945;52.036;8.614;2022-07-19T13:49:39;36.60;99.90
3860;DHT22;1945;52.036;8.614;2022-07-19T13:52:06;36.60;99.90
3860;DHT22;1945;52.036;8.614;2022-07-19T13:54:34;36.50;99.90
3860;DHT22;1945;52.036;8.614;2022-07-19T13:57:01;36.50;99.90
3860;DHT22;1945;52.036;8.614;2022-07-19T13:59:27;36.50;99.90
3860;DHT22;1945;52.036;8.614;2022-07-19T14:01:55;36.40;99.90
3860;DHT22;1945;52.036;8.614;2022-07-19T14:04:22;36.40;99.90
3860;DHT22;1945;52.036;8.614;2022-07-19T14:06:49;36.30;99.90
3860;DHT22;1945;52.036;8.614;2022-07-19T14:09:16;36.40;99.90
3860;DHT22;1945;52.036;8.614;2022-07-19T14:11:44;36.30;99.90
3860;DHT22;1945;52.036;8.614;2022-07-19T14:14:11;36.40;99.90
3860;DHT22;1945;52.036;8.614;2022-07-19T14:16:38;36.40;99.90
3860;DHT22;1945;52.036;8.614;2022-07-19T14:19:05;36.40;99.90
3860;DHT22;1945;52.036;8.614;2022-07-19T14:21:32;36.50;99.90
3860;DHT22;1945;52.036;8.614;2022-07-19T14:24:00;36.30;99.90
3860;DHT22;1945;52.036;8.614;2022-07-19T14:26:26;36.30;99.90
3860;DHT22;1945;52.036;8.614;2022-07-19T14:28:54;36.40;99.90
3860;DHT22;1945;52.036;8.614;2022-07-19T14:31:22;36.50;99.90
3860;DHT22;1945;52.036;8.614;2022-07-19T14:33:48;36.50;99.90
3860;DHT22;1945;52.036;8.614;2022-07-19T14:36:15;36.50;99.90
3860;DHT22;1945;52.036;8.614;2022-07-19T14:38:42;36.60;99.90
3860;DHT22;1945;52.036;8.614;2022-07-19T14:41:09;36.50;99.90
3860;DHT22;1945;52.036;8.614;2022-07-19T14:43:35;36.60;99.90
3860;DHT22;1945;52.036;8.614;2022-07-19T14:46:03;36.30;99.90
3860;DHT22;1945;52.036;8.614;2022-07-19T14:48:30;36.20;99.90
3860;DHT22;1945;52.036;8.614;2022-07-19T14:50:57;36.30;99.90
3860;DHT22;1945;52.036;8.614;2022-07-19T14:53:23;36.40;99.90
3860;DHT22;1945;52.036;8.614;2022-07-19T14:55:50;36.30;99.90
3860;DHT22;1945;52.036;8.614;2022-07-19T14:58:17;36.40;99.90
3860;DHT22;1945;52.036;8.614;2022-07-19T15:00:43;36.50;99.90
3860;DHT22;1945;52.036;8.614;2022-07-19T15:03:11;36.30;99.90
3860;DHT22;1945;52.036;8.614;2022-07-19T15:05:38;36.20;99.90
3860;DHT22;1945;52.036;8.614;2022-07-19T15:08:04;36.30;99.90
3860;DHT22;1945;52.036;8.614;2022-07-19T15:10:31;36.20;99.90
3860;DHT22;1945;52.036;8.614;2022-07-19T15:12:58;36.30;99.90
3860;DHT22;1945;52.036;8.614;2022-07-19T15:15:24;36.40;99.90
3860;DHT22;1945;52.036;8.614;2022-07-19T15:17:51;36.20;99.90
3860;DHT22;1945;52.036;8.614;2022-07-19T15:20:19;36.30;99.90
3860;DHT22;1945;52.036;8.614;2022-07-19T15:22:47;36.20;99.90
3860;DHT22;1945;52.036;8.614;2022-07-19T15:25:14;36.20;99.90
3860;DHT22;1945;52.036;8.614;2022-07-19T15:27:44;36.40;99.90
3860;DHT22;1945;52.036;8.614;2022-07-19T15:30:16;36.30;99.90
3860;DHT22;1945;52.036;8.614;2022-07-19T15:32:45;36.20;99.90
3860;DHT22;1945;52.036;8.614;2022-07-19T15:35:12;36.10;99.90
3860;DHT22;1945;52.036;8.614;2022-07-19T15:37:40;36.10;99.90
3860;DHT22;1945;52.036;8.614;2022-07-19T15:40:08;36.00;99.90
3860;DHT22;1945;52.036;8.614;2022-07-19T15:42:43;36.10;99.90
3860;DHT22;1945;52.036;8.614;2022-07-19T15:45:10;36.10;99.90
3860;DHT22;1945;52.036;8.614;2022-07-19T15:47:39;36.00;99.90
3860;DHT22;1945;52.036;8.614;2022-07-19T15:50:08;36.00;99.90
3860;DHT22;1945;52.036;8.614;2022-07-19T15:52:35;36.10;99.90
3860;DHT22;1945;52.036;8.614;2022-07-19T15:55:05;36.00;99.90
3860;DHT22;1945;52.036;8.614;2022-07-19T15:57:32;36.10;99.90
3860;DHT22;1945;52.036;8.614;2022-07-19T15:59:59;36.10;99.90
3860;DHT22;1945;52.036;8.614;2022-07-19T16:02:25;36.00;99.90
3860;DHT22;1945;52.036;8.614;2022-07-19T16:04:52;36.00;99.90
3860;DHT22;1945;52.036;8.614;2022-07-19T16:07:19;35.90;99.90
3860;DHT22;1945;52.036;8.614;2022-07-19T16:09:46;35.90;99.90
3860;DHT22;1945;52.036;8.614;2022-07-19T16:12:14;35.90;99.90